Hc Nadja Maria — V2AV4 — position and weather

sailwx.info

Track history (hours):
 
Tides and Currents Weather Stations Pressure Air Temp Water Temp Dewpoint Dewpoint Depression Visibility Wind Speed Wind Dir Waves Ship Positions

Hc Nadja Maria

Last reported at 2017-Mar-20 20:30 UTC. Time now 2017-Mar-24 17:44 UTC.
Position N 37°32' E 008°21'.

Length 130 m; draft 7.8 m.

Type: Cargo ship. MMSI: 304204000.

Date/timePositionNaut miles runAvg speedWind from/ knotsBaromVisibWave heightAir tempDewpointWater temp
2017-Mar-20 20:30N 37°32' E 008°21'11811.5
2017-Mar-20 10:14N 37°31' E 010°50'1111.8
2017-Mar-20 09:19N 37°28' E 011°03'7011.9
2017-Mar-20 03:26N 36°58' E 012°22'1112.0
2017-Mar-20 02:33N 36°52' E 012°34'1212.2
2017-Mar-20 01:33N 36°47' E 012°47'1312.5
2017-Mar-20 00:33N 36°41' E 013°01'1312.6
2017-Mar-19 23:33N 36°35' E 013°15'1312.6
2017-Mar-19 22:33N 36°29' E 013°28'1212.2
2017-Mar-19 21:33N 36°23' E 013°42'1211.6
2017-Mar-19 20:33N 36°18' E 013°55'1111.2
2017-Mar-19 19:33N 36°12' E 014°07'1211.7
2017-Mar-19 18:33N 36°06' E 014°19'1211.6
2017-Mar-19 17:33N 35°59' E 014°31'1010.1
2017-Mar-19 16:33N 35°50' E 014°36'1 0.4
2017-Mar-19 15:19N 35°50' E 014°35'0 0.0
2017-Mar-19 14:28N 35°50' E 014°36'0 0.0
2017-Mar-19 13:31N 35°50' E 014°36'0 0.0
2017-Mar-19 12:31N 35°50' E 014°36'2 2.4
2017-Mar-19 11:33N 35°50' E 014°38'1110.6
2017-Mar-19 10:33N 35°55' E 014°50'0 0.1
2017-Mar-19 09:33N 35°55' E 014°50'0 0.0
2017-Mar-19 08:30N 35°55' E 014°51'0 0.0
2017-Mar-19 07:33N 35°55' E 014°51'0 0.0
2017-Mar-19 06:33N 35°55' E 014°51'0 0.0
2017-Mar-19 05:33N 35°55' E 014°51'0 0.0
2017-Mar-19 04:33N 35°55' E 014°50'9 6.6
2017-Mar-19 03:08N 36°04' E 014°53'1010.4
2017-Mar-19 02:09N 36°00' E 015°05'811.0
2017-Mar-19 01:23N 36°01' E 015°15'911.1
2017-Mar-19 00:33N 36°01' E 015°26'  
2017-Mar-13 14:33N 44°30' E 037°29'1212.5
2017-Mar-13 13:33N 44°36' E 037°44'8 8.0
2017-Mar-13 12:33N 44°43' E 037°48'1 0.6
2017-Mar-13 11:33N 44°44' E 037°48'0 0.0
2017-Mar-13 10:33N 44°44' E 037°48'0 0.0
2017-Mar-13 09:33N 44°44' E 037°48'0 0.0
2017-Mar-13 08:33N 44°44' E 037°48'0 0.0
2017-Mar-13 07:33N 44°44' E 037°48'0 0.0
2017-Mar-13 06:33N 44°44' E 037°48'0 0.0
2017-Mar-13 05:33N 44°44' E 037°48'0 0.0
2017-Mar-13 04:33N 44°44' E 037°48'0 0.0
2017-Mar-13 03:27N 44°44' E 037°48'0 0.0
2017-Mar-13 02:33N 44°44' E 037°48'0 0.0
2017-Mar-13 01:33N 44°44' E 037°48'0 0.0
2017-Mar-13 00:33N 44°44' E 037°48'0 0.0
2017-Mar-12 23:33N 44°44' E 037°48'0 0.0
2017-Mar-12 22:33N 44°44' E 037°48'0 0.0
2017-Mar-12 21:33N 44°44' E 037°48'0 0.0
2017-Mar-12 20:33N 44°44' E 037°48'0 0.0
2017-Mar-12 19:33N 44°44' E 037°48'0 0.0
2017-Mar-12 18:33N 44°44' E 037°48'0 0.0
2017-Mar-12 17:33N 44°44' E 037°48'0 0.0
2017-Mar-12 16:33N 44°44' E 037°48'0 0.0
2017-Mar-12 15:33N 44°44' E 037°48'0 0.0
2017-Mar-12 14:33N 44°44' E 037°48'0 0.0
2017-Mar-12 13:21N 44°44' E 037°48'0 0.0
2017-Mar-12 12:33N 44°44' E 037°48'0 0.0
2017-Mar-12 11:33N 44°44' E 037°48'0 0.0
2017-Mar-12 10:33N 44°44' E 037°48'0 0.0
2017-Mar-12 09:33N 44°44' E 037°48'0 0.0
2017-Mar-12 08:33N 44°44' E 037°48'0 0.0
2017-Mar-12 07:33N 44°44' E 037°48'0 0.0
2017-Mar-12 06:33N 44°44' E 037°48'0 0.0
2017-Mar-12 05:33N 44°44' E 037°48'0 0.0
2017-Mar-12 04:30N 44°44' E 037°48'0 0.0
2017-Mar-12 03:33N 44°44' E 037°48'0 0.0
2017-Mar-12 02:33N 44°44' E 037°48'0 0.0
2017-Mar-12 01:33N 44°44' E 037°48'0 0.0
2017-Mar-12 00:33N 44°44' E 037°48'0 0.0
2017-Mar-11 23:33N 44°44' E 037°48'0 0.0
2017-Mar-11 22:33N 44°44' E 037°48'0 0.0
2017-Mar-11 21:33N 44°44' E 037°48'0 0.0
2017-Mar-11 20:33N 44°44' E 037°48'0 0.0
2017-Mar-11 19:33N 44°44' E 037°48'0 0.0
2017-Mar-11 18:33N 44°44' E 037°48'0 0.0
2017-Mar-11 17:33N 44°44' E 037°48'0 0.0
2017-Mar-11 16:30N 44°44' E 037°48'0 0.0
2017-Mar-11 15:33N 44°44' E 037°48'0 0.0
2017-Mar-11 14:33N 44°44' E 037°48'0 0.0
2017-Mar-11 13:33N 44°44' E 037°48'0 0.0
2017-Mar-11 12:33N 44°44' E 037°48'0 0.0
2017-Mar-11 11:33N 44°44' E 037°48'0 0.0
2017-Mar-11 09:20N 44°44' E 037°48'0 0.0
2017-Mar-11 08:32N 44°44' E 037°48'0 0.0
2017-Mar-11 07:32N 44°44' E 037°48'0 0.0
2017-Mar-11 06:32N 44°44' E 037°48'0 0.0
2017-Mar-11 05:32N 44°44' E 037°48'0 0.0
2017-Mar-11 04:32N 44°44' E 037°48'0 0.0
2017-Mar-11 03:32N 44°44' E 037°48'0 0.0
2017-Mar-11 02:32N 44°44' E 037°48'0 0.0
2017-Mar-11 01:32N 44°44' E 037°48'0 0.0
2017-Mar-11 00:32N 44°44' E 037°48'0 0.0
2017-Mar-10 23:32N 44°44' E 037°48'0 0.0
2017-Mar-10 22:32N 44°44' E 037°48'0 0.0
2017-Mar-10 21:32N 44°44' E 037°48'0 0.0
2017-Mar-10 20:32N 44°44' E 037°48'  
Track history (hours):
 
Tides and Currents Weather Stations Pressure Air Temp Water Temp Dewpoint Dewpoint Depression Visibility Wind Speed Wind Dir Waves Ship Positions

Hc Nadja Maria

Last reported at 2017-Mar-20 20:30 UTC. Time now 2017-Mar-24 17:44 UTC.
Position N 37°32' E 008°21'.

Length 130 m; draft 7.8 m.

Type: Cargo ship. MMSI: 304204000.

Date/timePositionNaut miles runAvg speedWind from/ knotsBaromVisibWave heightAir tempDewpointWater temp
2017-Mar-20 20:30N 37°32' E 008°21'11811.5
2017-Mar-20 10:14N 37°31' E 010°50'1111.8
2017-Mar-20 09:19N 37°28' E 011°03'7011.9
2017-Mar-20 03:26N 36°58' E 012°22'1112.0
2017-Mar-20 02:33N 36°52' E 012°34'1212.2
2017-Mar-20 01:33N 36°47' E 012°47'1312.5
2017-Mar-20 00:33N 36°41' E 013°01'1312.6
2017-Mar-19 23:33N 36°35' E 013°15'1312.6
2017-Mar-19 22:33N 36°29' E 013°28'1212.2
2017-Mar-19 21:33N 36°23' E 013°42'1211.6
2017-Mar-19 20:33N 36°18' E 013°55'1111.2
2017-Mar-19 19:33N 36°12' E 014°07'1211.7
2017-Mar-19 18:33N 36°06' E 014°19'1211.6
2017-Mar-19 17:33N 35°59' E 014°31'1010.1
2017-Mar-19 16:33N 35°50' E 014°36'1 0.4
2017-Mar-19 15:19N 35°50' E 014°35'0 0.0
2017-Mar-19 14:28N 35°50' E 014°36'0 0.0
2017-Mar-19 13:31N 35°50' E 014°36'0 0.0
2017-Mar-19 12:31N 35°50' E 014°36'2 2.4
2017-Mar-19 11:33N 35°50' E 014°38'1110.6
2017-Mar-19 10:33N 35°55' E 014°50'0 0.1
2017-Mar-19 09:33N 35°55' E 014°50'0 0.0
2017-Mar-19 08:30N 35°55' E 014°51'0 0.0
2017-Mar-19 07:33N 35°55' E 014°51'0 0.0
2017-Mar-19 06:33N 35°55' E 014°51'0 0.0
2017-Mar-19 05:33N 35°55' E 014°51'0 0.0
2017-Mar-19 04:33N 35°55' E 014°50'9 6.6
2017-Mar-19 03:08N 36°04' E 014°53'1010.4
2017-Mar-19 02:09N 36°00' E 015°05'811.0
2017-Mar-19 01:23N 36°01' E 015°15'911.1
2017-Mar-19 00:33N 36°01' E 015°26'  
2017-Mar-13 14:33N 44°30' E 037°29'1212.5
2017-Mar-13 13:33N 44°36' E 037°44'8 8.0
2017-Mar-13 12:33N 44°43' E 037°48'1 0.6
2017-Mar-13 11:33N 44°44' E 037°48'0 0.0
2017-Mar-13 10:33N 44°44' E 037°48'0 0.0
2017-Mar-13 09:33N 44°44' E 037°48'0 0.0
2017-Mar-13 08:33N 44°44' E 037°48'0 0.0
2017-Mar-13 07:33N 44°44' E 037°48'0 0.0
2017-Mar-13 06:33N 44°44' E 037°48'0 0.0
2017-Mar-13 05:33N 44°44' E 037°48'0 0.0
2017-Mar-13 04:33N 44°44' E 037°48'0 0.0
2017-Mar-13 03:27N 44°44' E 037°48'0 0.0
2017-Mar-13 02:33N 44°44' E 037°48'0 0.0
2017-Mar-13 01:33N 44°44' E 037°48'0 0.0
2017-Mar-13 00:33N 44°44' E 037°48'0 0.0
2017-Mar-12 23:33N 44°44' E 037°48'0 0.0
2017-Mar-12 22:33N 44°44' E 037°48'0 0.0
2017-Mar-12 21:33N 44°44' E 037°48'0 0.0
2017-Mar-12 20:33N 44°44' E 037°48'0 0.0
2017-Mar-12 19:33N 44°44' E 037°48'0 0.0
2017-Mar-12 18:33N 44°44' E 037°48'0 0.0
2017-Mar-12 17:33N 44°44' E 037°48'0 0.0
2017-Mar-12 16:33N 44°44' E 037°48'0 0.0
2017-Mar-12 15:33N 44°44' E 037°48'0 0.0
2017-Mar-12 14:33N 44°44' E 037°48'0 0.0
2017-Mar-12 13:21N 44°44' E 037°48'0 0.0
2017-Mar-12 12:33N 44°44' E 037°48'0 0.0
2017-Mar-12 11:33N 44°44' E 037°48'0 0.0
2017-Mar-12 10:33N 44°44' E 037°48'0 0.0
2017-Mar-12 09:33N 44°44' E 037°48'0 0.0
2017-Mar-12 08:33N 44°44' E 037°48'0 0.0
2017-Mar-12 07:33N 44°44' E 037°48'0 0.0
2017-Mar-12 06:33N 44°44' E 037°48'0 0.0
2017-Mar-12 05:33N 44°44' E 037°48'0 0.0
2017-Mar-12 04:30N 44°44' E 037°48'0 0.0
2017-Mar-12 03:33N 44°44' E 037°48'0 0.0
2017-Mar-12 02:33N 44°44' E 037°48'0 0.0
2017-Mar-12 01:33N 44°44' E 037°48'0 0.0
2017-Mar-12 00:33N 44°44' E 037°48'0 0.0
2017-Mar-11 23:33N 44°44' E 037°48'0 0.0
2017-Mar-11 22:33N 44°44' E 037°48'0 0.0
2017-Mar-11 21:33N 44°44' E 037°48'0 0.0
2017-Mar-11 20:33N 44°44' E 037°48'0 0.0
2017-Mar-11 19:33N 44°44' E 037°48'0 0.0
2017-Mar-11 18:33N 44°44' E 037°48'0 0.0
2017-Mar-11 17:33N 44°44' E 037°48'0 0.0
2017-Mar-11 16:30N 44°44' E 037°48'0 0.0
2017-Mar-11 15:33N 44°44' E 037°48'0 0.0
2017-Mar-11 14:33N 44°44' E 037°48'0 0.0
2017-Mar-11 13:33N 44°44' E 037°48'0 0.0
2017-Mar-11 12:33N 44°44' E 037°48'0 0.0
2017-Mar-11 11:33N 44°44' E 037°48'0 0.0
2017-Mar-11 09:20N 44°44' E 037°48'0 0.0
2017-Mar-11 08:32N 44°44' E 037°48'0 0.0
2017-Mar-11 07:32N 44°44' E 037°48'0 0.0
2017-Mar-11 06:32N 44°44' E 037°48'0 0.0
2017-Mar-11 05:32N 44°44' E 037°48'0 0.0
2017-Mar-11 04:32N 44°44' E 037°48'0 0.0
2017-Mar-11 03:32N 44°44' E 037°48'0 0.0
2017-Mar-11 02:32N 44°44' E 037°48'0 0.0
2017-Mar-11 01:32N 44°44' E 037°48'0 0.0
2017-Mar-11 00:32N 44°44' E 037°48'0 0.0
2017-Mar-10 23:32N 44°44' E 037°48'0 0.0
2017-Mar-10 22:32N 44°44' E 037°48'0 0.0
2017-Mar-10 21:32N 44°44' E 037°48'0 0.0
2017-Mar-10 20:32N 44°44' E 037°48'  

Dump ship's entire track history